Swallowfield Close, Crewe weather

Latitude N 53° 04' 54" Longitude W 02° 27' 25" Elevation 52 m Grid Ref SJ69475393

This page shows a table of observations data for today using the Cumulus "recent history" webtags facility. It is experimental only. The table shows data observations at 10 minute intervals for the 8 hours prior to 03:20 on Tuesday 11 December i.e. the time this page was processed by Cumulus. Ideally in the long-term this will be replaced by a script to read data/realtimelog.txt for the current (or selectable) date and display all the observations for the applicable meteorological date (11/12/2018 in this case) starting at midnight (rollover time). This will fix the start of the observations table to a defined point.

The graph shows the same data but at 5-minute intervals.


Table of observations data (at 10-minute intervals) for Swallowfield Close, Crewe since 18:20 on 11/12/2018
Observations
Time Temp Wind Chill Dewpoint Pressure Wind Speed Wind Gust Wind Dir Humidity Rainfall
18:20 7.0 °C 7.0 °C 5.3 °C 1021.4 hPa 0.1 km/h 1.1 km/h 89 % 6.0 mm
18:30 7.0 °C 7.0 °C 5.3 °C 1021.3 hPa 2.5 km/h 2.5 km/h 89 % 6.0 mm
18:40 7.0 °C 7.0 °C 5.3 °C 1021.2 hPa 2.5 km/h 2.5 km/h 89 % 6.0 mm
18:50 7.0 °C 7.0 °C 5.3 °C 1021.2 hPa 2.5 km/h 2.5 km/h 89 % 6.0 mm
19:00 7.0 °C 7.0 °C 5.3 °C 1021.3 hPa 2.5 km/h 2.5 km/h 89 % 6.0 mm
19:10 7.0 °C 7.0 °C 5.3 °C 1021.0 hPa 2.5 km/h 2.5 km/h 89 % 6.0 mm
19:20 6.6 °C 6.6 °C 5.1 °C 1021.1 hPa 0.0 km/h 0.0 km/h 90 % 6.0 mm
19:30 6.4 °C 6.4 °C 4.9 °C 1021.2 hPa 0.0 km/h 0.0 km/h 90 % 6.0 mm
19:40 6.4 °C 6.4 °C 4.9 °C 1021.0 hPa 0.0 km/h 0.0 km/h 90 % 6.0 mm
19:50 6.3 °C 6.3 °C 4.8 °C 1021.1 hPa 0.0 km/h 0.0 km/h 90 % 6.0 mm
20:00 6.2 °C 6.2 °C 4.7 °C 1021.1 hPa 0.0 km/h 0.0 km/h 90 % 6.0 mm
20:10 6.1 °C 6.1 °C 4.6 °C 1021.1 hPa 0.0 km/h 0.0 km/h 90 % 6.0 mm
20:20 5.9 °C 5.9 °C 4.5 °C 1021.1 hPa 0.0 km/h 0.0 km/h 91 % 6.0 mm
20:30 5.9 °C 5.9 °C 4.5 °C 1020.9 hPa 0.0 km/h 0.0 km/h 91 % 6.0 mm
20:40 5.9 °C 5.9 °C 4.5 °C 1020.9 hPa 0.0 km/h 0.0 km/h 91 % 6.0 mm
20:50 6.0 °C 6.0 °C 4.5 °C 1020.7 hPa 0.0 km/h 0.0 km/h 90 % 6.0 mm
21:00 6.0 °C 6.0 °C 4.5 °C 1020.8 hPa 0.0 km/h 0.0 km/h 90 % 6.0 mm
21:10 6.0 °C 6.0 °C 4.5 °C 1020.8 hPa 0.0 km/h 0.0 km/h 90 % 6.0 mm
21:20 6.1 °C 6.1 °C 4.6 °C 1021.2 hPa 0.4 km/h 1.1 km/h 90 % 6.0 mm
21:30 6.1 °C 6.1 °C 4.6 °C 1021.2 hPa 0.4 km/h 1.1 km/h 90 % 6.0 mm
21:40 6.1 °C 6.1 °C 4.7 °C 1021.2 hPa 0.1 km/h 1.1 km/h 91 % 6.0 mm
21:50 6.1 °C 6.1 °C 4.7 °C 1021.4 hPa 0.0 km/h 0.0 km/h 91 % 6.0 mm
22:00 6.1 °C 6.1 °C 4.7 °C 1021.4 hPa 0.0 km/h 0.0 km/h 91 % 6.0 mm
22:10 6.1 °C 6.1 °C 4.7 °C 1021.2 hPa 0.0 km/h 0.0 km/h 91 % 6.0 mm
22:20 6.1 °C 6.1 °C 4.7 °C 1021.1 hPa 0.0 km/h 0.0 km/h 91 % 6.0 mm
22:30 6.1 °C 6.1 °C 4.7 °C 1021.1 hPa 0.0 km/h 0.0 km/h 91 % 6.0 mm
22:40 6.1 °C 6.1 °C 4.7 °C 1021.2 hPa 0.0 km/h 0.0 km/h 91 % 6.0 mm
22:50 6.1 °C 6.1 °C 4.7 °C 1021.0 hPa 0.0 km/h 0.0 km/h 91 % 6.0 mm
23:00 6.1 °C 6.1 °C 4.7 °C 1020.7 hPa 1.0 km/h 1.1 km/h 91 % 6.0 mm
23:10 6.0 °C 6.0 °C 4.6 °C 1020.7 hPa 1.0 km/h 1.1 km/h 91 % 6.0 mm
23:20 6.0 °C 6.0 °C 4.6 °C 1020.6 hPa 0.0 km/h 0.0 km/h 91 % 6.0 mm
23:30 5.9 °C 5.9 °C 4.7 °C 1020.6 hPa 0.6 km/h 1.1 km/h 92 % 6.0 mm
23:40 5.7 °C 5.7 °C 4.3 °C 1020.6 hPa 0.2 km/h 1.1 km/h 91 % 6.0 mm
23:50 5.2 °C 5.2 °C 3.9 °C 1020.5 hPa 0.1 km/h 1.1 km/h 91 % 6.0 mm
00:00 5.0 °C 5.0 °C 3.7 °C 1020.5 hPa 0.0 km/h 1.1 km/h 91 % 0.0 mm
00:10 4.9 °C 4.9 °C 3.7 °C 1020.3 hPa 0.4 km/h 1.1 km/h 92 % 0.0 mm
00:20 4.7 °C 4.7 °C 3.5 °C 1020.3 hPa 0.4 km/h 1.1 km/h 92 % 0.0 mm
00:30 4.5 °C 4.5 °C 3.3 °C 1020.3 hPa 0.0 km/h 0.0 km/h 92 % 0.0 mm
00:40 3.9 °C 3.9 °C 2.9 °C 1020.1 hPa 0.0 km/h 0.0 km/h 93 % 0.0 mm
00:50 3.9 °C 3.9 °C 2.9 °C 1019.9 hPa 0.0 km/h 0.0 km/h 93 % 0.0 mm
01:00 3.9 °C 3.9 °C 2.9 °C 1019.8 hPa 0.0 km/h 0.0 km/h 93 % 0.0 mm
01:10 3.9 °C 3.9 °C 2.9 °C 1019.7 hPa 0.0 km/h 0.0 km/h 93 % 0.0 mm
01:20 3.9 °C 3.9 °C 2.9 °C 1019.5 hPa 0.0 km/h 0.0 km/h 93 % 0.0 mm
01:30 3.9 °C 3.9 °C 2.9 °C 1019.6 hPa 0.0 km/h 0.0 km/h 93 % 0.0 mm
01:40 3.9 °C 3.9 °C 2.9 °C 1019.5 hPa 0.0 km/h 0.0 km/h 93 % 0.0 mm
01:50 3.9 °C 3.9 °C 2.9 °C 1019.4 hPa 0.0 km/h 0.0 km/h 93 % 0.0 mm
02:00 3.9 °C 3.9 °C 2.9 °C 1019.5 hPa 0.0 km/h 0.0 km/h 93 % 0.0 mm
02:10 4.0 °C 4.0 °C 2.8 °C 1019.4 hPa 0.0 km/h 0.0 km/h 92 % 0.0 mm
02:20 4.0 °C 4.0 °C 2.8 °C 1019.2 hPa 0.0 km/h 0.0 km/h 92 % 0.0 mm
02:30 4.0 °C 4.0 °C 2.8 °C 1019.2 hPa 0.0 km/h 0.0 km/h 92 % 0.0 mm
02:40 4.0 °C 4.0 °C 2.8 °C 1019.1 hPa 0.0 km/h 0.0 km/h 92 % 0.0 mm
02:50 4.0 °C 4.0 °C 2.8 °C 1019.0 hPa 0.0 km/h 0.0 km/h 92 % 0.0 mm
03:00 4.4 °C 3.4 °C 3.2 °C 1019.0 hPa 5.0 km/h 5.0 km/h 92 % 0.0 mm
03:10 4.6 °C 4.6 °C 3.4 °C 1018.8 hPa 4.4 km/h 5.0 km/h 92 % 0.0 mm
:now: :trends: :gauges: :today/yesterday: :observations:
:month/year: :monthly records: :all-time records: :annual data: :noaa reports: :seasonal averages:
:mobile: :forum: :webcam: :system:



Page updated 11/12/2018 03:20:12
powered by Cumulus v1.9.4 (1099)